This is the latest recevied weather packets stored in our database for station/object IV3CLI-10. If no packets are shown the sender has not sent any weather packets the latest 10 day(s).
| Time | Temp. | Humidity | Pressure | Rain* | Wind** | Luminosity | Snow |
|---|---|---|---|---|---|---|---|
| 1777829984 | 20° C | 100% | 1016.8 hPa | - | - | - | - |
| 1777829084 | 23.33° C | 85% | 1016.8 hPa | - | - | - | - |
| 1777828183 | 22.78° C | 95% | 1017 hPa | - | - | - | - |
| 1777827283 | 22.78° C | 94% | 1017 hPa | - | - | - | - |
| 1777826383 | 22.78° C | 99% | 1017.1 hPa | - | - | - | - |
| 1777825483 | 21.11° C | 100% | 1017.2 hPa | - | - | - | - |
| 1777824583 | 22.78° C | 76% | 1017.1 hPa | - | - | - | - |
| 1777823683 | 23.89° C | 64% | 1017 hPa | - | - | - | - |
| 1777822783 | 23.89° C | 57% | 1017.2 hPa | - | - | - | - |
| 1777821883 | 23.89° C | 55% | 1017.2 hPa | - | - | - | - |
| 1777820983 | 25.56° C | 46% | 1017.4 hPa | - | - | - | - |
| 1777820083 | 26.11° C | 52% | 1017.5 hPa | - | - | - | - |
| 1777819183 | 25.56° C | 53% | 1017.5 hPa | - | - | - | - |
| 1777818283 | 25.56° C | 49% | 1017.6 hPa | - | - | - | - |
| 1777817382 | 25° C | 64% | 1017.9 hPa | - | - | - | - |
| 1777816482 | 25° C | 66% | 1017.9 hPa | - | - | - | - |
| 1777815581 | 25° C | 64% | 1018.1 hPa | - | - | - | - |
| 1777814681 | 25° C | 61% | 1018.1 hPa | - | - | - | - |
| 1777813781 | 25° C | 64% | 1018.2 hPa | - | - | - | - |
| 1777812880 | 25.56° C | 68% | 1018.3 hPa | - | - | - | - |
| 1777811980 | 25° C | 78% | 1018.6 hPa | - | - | - | - |
| 1777811079 | 25° C | 73% | 1018.6 hPa | - | - | - | - |
| 1777810179 | 24.44° C | 82% | 1018.7 hPa | - | - | - | - |
| 1777809279 | 23.89° C | 96% | 1018.7 hPa | - | - | - | - |
| 1777808379 | 24.44° C | 100% | 1018.7 hPa | - | - | - | - |
* Rain since midnight (hover to see other rain measurements)
** Current wind speed in m/s (hover to see current wind gust speed)